Time,TemperatureF,DewpointF,PressureIn,WindDirection,WindDirectionDegrees,WindSpeedMPH,WindSpeedGustMPH,Humidity,HourlyPrecipIn,Conditions,Clouds,dailyrainin,SoftwareType,DateUTC
2013-08-06 06:40:00,70.0,70.0,30.35,SW,225,0.0,0.0,100,0.00,,---,0.00,VWS V14.01,2013-08-06 10:40:00,
2013-08-06 06:44:00,70.0,70.0,30.36,SW,225,0.0,0.0,100,0.01,,---,0.00,VWS V14.01,2013-08-06 10:44:00,
2013-08-06 06:50:00,70.0,70.0,30.36,SW,225,0.0,0.0,100,0.01,,---,0.00,VWS V14.01,2013-08-06 10:50:00,
2013-08-06 06:55:00,70.0,70.0,30.36,SW,225,0.0,0.0,100,0.01,,---,0.00,VWS V14.01,2013-08-06 10:55:00,
2013-08-06 07:00:00,70.0,70.0,30.36,SW,225,0.0,0.0,100,0.01,,---,0.00,VWS V14.01,2013-08-06 11:00:00,
2013-08-06 07:05:00,70.0,70.0,30.36,SW,225,0.0,0.0,100,0.01,,---,0.00,VWS V14.01,2013-08-06 11:05:00,
2013-08-06 07:10:00,70.0,70.0,30.36,SW,225,0.0,0.0,100,0.01,,---,0.00,VWS V14.01,2013-08-06 11:10:00,
2013-08-06 07:15:00,70.0,70.0,30.36,SW,225,0.0,0.0,100,0.01,,---,0.00,VWS V14.01,2013-08-06 11:15:00,
2013-08-06 07:20:00,70.0,70.0,30.36,SW,225,0.0,0.0,100,0.01,,---,0.00,VWS V14.01,2013-08-06 11:20:00,
2013-08-06 07:25:00,70.0,70.0,30.36,SW,225,0.0,0.0,100,0.01,,---,0.00,VWS V14.01,2013-08-06 11:25:00,
2013-08-06 07:30:00,71.0,70.7,30.36,SW,225,0.0,0.0,99,0.01,,---,0.00,VWS V14.01,2013-08-06 11:30:00,
2013-08-06 07:35:00,71.0,69.2,30.36,SW,225,0.0,0.0,94,0.01,,---,0.00,VWS V14.01,2013-08-06 11:35:00,
2013-08-06 07:40:00,71.0,69.5,30.36,SW,225,0.0,0.0,95,0.01,,---,0.00,VWS V14.01,2013-08-06 11:40:00,
2013-08-06 07:45:00,71.0,69.2,30.36,SW,225,0.0,0.0,94,0.00,,---,0.00,VWS V14.01,2013-08-06 11:45:00,
2013-08-06 07:50:00,71.0,69.5,30.36,SW,225,0.0,0.0,95,0.00,,---,0.00,VWS V14.01,2013-08-06 11:50:00,
2013-08-06 07:55:00,72.0,69.5,30.34,SW,225,0.0,0.0,92,0.00,,---,0.00,VWS V14.01,2013-08-06 11:55:00,
2013-08-06 08:00:00,72.0,69.2,30.34,SW,225,0.0,0.0,91,0.00,,---,0.00,VWS V14.01,2013-08-06 12:00:00,
2013-08-06 08:05:00,72.0,68.2,30.34,SW,225,0.0,0.0,88,0.00,,---,0.00,VWS V14.01,2013-08-06 12:05:00,
2013-08-06 08:10:00,73.0,68.5,30.34,SW,225,0.0,0.0,86,0.00,,---,0.00,VWS V14.01,2013-08-06 12:10:00,
2013-08-06 08:15:00,73.0,58.7,30.32,SW,225,0.0,0.0,61,0.00,,---,0.00,VWS V14.01,2013-08-06 12:15:00,
2013-08-06 08:20:00,74.0,60.6,30.32,SW,225,0.0,0.0,63,0.00,,---,0.00,VWS V14.01,2013-08-06 12:20:00,
2013-08-06 08:25:00,74.0,60.6,30.31,SW,225,0.0,0.0,63,0.00,,---,0.00,VWS V14.01,2013-08-06 12:25:00,
2013-08-06 08:30:00,74.0,61.5,30.31,SW,225,0.0,0.0,65,0.00,,---,0.00,VWS V14.01,2013-08-06 12:30:00,
2013-08-06 08:36:00,75.0,62.4,30.30,SW,225,0.0,0.0,65,0.00,,---,0.00,VWS V14.01,2013-08-06 12:36:00,
2013-08-06 08:40:00,75.0,62.8,30.30,SW,225,0.0,0.0,66,0.00,,---,0.00,VWS V14.01,2013-08-06 12:40:00,
2013-08-06 08:46:00,75.0,62.8,30.28,SW,225,0.0,0.0,66,0.00,,---,0.00,VWS V14.01,2013-08-06 12:46:00,
2013-08-06 08:51:00,75.0,62.8,30.28,SW,225,0.0,0.0,66,0.00,,---,0.00,VWS V14.01,2013-08-06 12:51:00,
2013-08-06 08:56:00,76.0,64.6,30.27,NW,315,0.0,0.0,68,0.00,,---,0.00,VWS V14.01,2013-08-06 12:56:00,
2013-08-06 09:01:00,76.0,64.6,30.27,NW,315,0.0,0.0,68,0.00,,---,0.00,VWS V14.01,2013-08-06 13:01:00,
2013-08-06 09:06:00,76.0,64.6,30.26,NW,315,0.0,0.0,68,0.00,,---,0.00,VWS V14.01,2013-08-06 13:06:00,
2013-08-06 09:11:00,76.0,65.1,30.26,NW,315,0.0,0.0,69,0.00,,---,0.00,VWS V14.01,2013-08-06 13:11:00,
2013-08-06 09:16:00,77.0,76.1,30.24,NW,315,0.0,0.0,97,0.00,,---,0.00,VWS V14.01,2013-08-06 13:16:00,
2013-08-06 09:21:00,77.0,76.7,30.24,NW,315,0.0,0.0,99,0.00,,---,0.00,VWS V14.01,2013-08-06 13:21:00,
2013-08-06 09:26:00,77.0,76.4,30.22,NE,45,0.0,2.0,98,0.00,,---,0.00,VWS V14.01,2013-08-06 13:26:00,
2013-08-06 09:31:00,77.0,77.0,30.22,East,90,0.0,0.0,100,0.00,,---,0.00,VWS V14.01,2013-08-06 13:31:00,
2013-08-06 09:36:00,78.0,78.0,30.21,East,90,0.0,0.0,100,0.00,,---,0.00,VWS V14.01,2013-08-06 13:36:00,
2013-08-06 09:41:00,78.0,78.0,30.21,North,360,0.0,4.0,100,0.00,,---,0.00,VWS V14.01,2013-08-06 13:41:00,
2013-08-06 09:46:00,78.0,78.0,30.19,North,360,0.0,0.0,100,0.00,,---,0.00,VWS V14.01,2013-08-06 13:46:00,
2013-08-06 09:51:00,79.0,79.0,30.19,North,360,0.0,0.0,100,0.00,,---,0.00,VWS V14.01,2013-08-06 13:51:00,
2013-08-06 09:56:00,79.0,79.0,30.17,North,360,0.0,0.0,100,0.00,,---,0.00,VWS V14.01,2013-08-06 13:56:00,
2013-08-06 10:02:00,79.0,79.0,30.17,North,360,0.0,0.0,100,0.00,,---,0.00,VWS V14.01,2013-08-06 14:02:00,
2013-08-06 10:07:00,80.0,80.0,30.16,ENE,67,0.0,0.0,100,0.00,,---,0.00,VWS V14.01,2013-08-06 14:07:00,
2013-08-06 10:12:00,80.0,80.0,30.16,East,90,0.0,1.0,100,0.00,,---,0.00,VWS V14.01,2013-08-06 14:12:00,
2013-08-06 10:17:00,81.0,81.0,30.13,East,90,0.0,0.0,100,0.00,,---,0.00,VWS V14.01,2013-08-06 14:17:00,
2013-08-06 10:22:00,81.0,81.0,30.13,NE,45,0.0,0.0,100,0.00,,---,0.00,VWS V14.01,2013-08-06 14:22:00,
2013-08-06 10:27:00,82.0,82.0,30.09,ENE,67,0.0,0.0,100,0.00,,---,0.00,VWS V14.01,2013-08-06 14:27:00,
2013-08-06 10:32:00,82.0,82.0,30.09,North,360,0.0,0.0,100,0.00,,---,0.00,VWS V14.01,2013-08-06 14:32:00,
2013-08-06 10:37:00,82.0,82.0,30.07,East,90,6.0,6.0,100,0.00,,---,0.00,VWS V14.01,2013-08-06 14:37:00,
2013-08-06 10:42:00,82.0,82.0,30.07,East,90,1.0,6.0,100,0.00,,---,0.00,VWS V14.01,2013-08-06 14:42:00,
2013-08-06 10:47:00,83.0,83.0,30.02,North,360,0.0,0.0,100,0.00,,---,0.00,VWS V14.01,2013-08-06 14:47:00,
2013-08-06 10:52:00,83.0,83.0,30.02,East,90,0.0,0.0,100,0.00,,---,0.00,VWS V14.01,2013-08-06 14:52:00,
2013-08-06 10:57:00,84.0,84.0,30.02,East,90,0.0,1.0,100,0.00,,---,0.00,VWS V14.01,2013-08-06 14:57:00,
2013-08-06 11:02:00,84.0,84.0,30.02,NNE,22,1.0,2.0,100,0.00,,---,0.00,VWS V14.01,2013-08-06 15:02:00,
2013-08-06 11:07:00,85.0,84.7,30.02,East,90,6.0,6.0,99,0.00,,---,0.00,VWS V14.01,2013-08-06 15:07:00,
2013-08-06 11:12:00,85.0,83.7,30.02,East,90,0.0,5.0,96,0.00,,---,0.00,VWS V14.01,2013-08-06 15:12:00,
2013-08-06 11:18:00,85.0,84.3,30.03,East,90,0.0,0.0,98,0.00,,---,0.00,VWS V14.01,2013-08-06 15:18:00,
2013-08-06 11:24:00,86.0,85.3,30.03,East,90,0.0,0.0,98,0.00,,---,0.00,VWS V14.01,2013-08-06 15:24:00,
2013-08-06 11:29:00,86.0,85.3,30.02,East,90,0.0,0.0,98,0.00,,---,0.00,VWS V14.01,2013-08-06 15:29:00,
2013-08-06 11:34:00,87.0,85.7,30.02,NE,45,0.0,0.0,96,0.00,,---,0.00,VWS V14.01,2013-08-06 15:34:00,
2013-08-06 11:39:00,88.0,86.0,30.02,East,90,0.0,0.0,94,0.00,,---,0.00,VWS V14.01,2013-08-06 15:39:00,
2013-08-06 11:44:00,89.0,86.3,30.02,North,360,0.0,0.0,92,0.00,,---,0.00,VWS V14.01,2013-08-06 15:44:00,
2013-08-06 11:49:00,89.0,86.3,30.01,East,90,2.0,6.0,92,0.00,,---,0.00,VWS V14.01,2013-08-06 15:49:00,
2013-08-06 11:54:00,89.0,84.9,30.01,NNE,22,2.0,2.0,88,0.00,,---,0.00,VWS V14.01,2013-08-06 15:54:00,
2013-08-06 11:59:00,89.0,85.3,30.01,West,270,0.0,0.0,89,0.00,,---,0.00,VWS V14.01,2013-08-06 15:59:00,
2013-08-06 12:04:00,89.0,82.8,30.01,ESE,112,4.0,5.0,82,0.00,,---,0.00,VWS V14.01,2013-08-06 16:04:00,
2013-08-06 12:09:00,90.0,85.9,30.00,North,360,0.0,1.0,88,0.00,,---,0.00,VWS V14.01,2013-08-06 16:09:00,
2013-08-06 12:14:00,90.0,85.2,30.00,East,90,0.0,0.0,86,0.00,,---,0.00,VWS V14.01,2013-08-06 16:14:00,
2013-08-06 12:19:00,91.0,84.3,30.00,South,180,2.0,6.0,81,0.00,,---,0.00,VWS V14.01,2013-08-06 16:19:00,
2013-08-06 12:24:00,91.0,85.4,30.00,East,90,4.0,7.0,84,0.00,,---,0.00,VWS V14.01,2013-08-06 16:24:00,
2013-08-06 12:29:00,90.0,84.8,29.99,North,360,0.0,3.0,85,0.00,,---,0.00,VWS V14.01,2013-08-06 16:29:00,
2013-08-06 12:34:00,91.0,85.8,29.99,East,90,1.0,4.0,85,0.00,,---,0.00,VWS V14.01,2013-08-06 16:34:00,
2013-08-06 12:39:00,91.0,85.1,29.99,East,90,3.0,5.0,83,0.00,,---,0.00,VWS V14.01,2013-08-06 16:39:00,
2013-08-06 12:44:00,90.0,85.9,29.99,East,90,2.0,5.0,88,0.00,,---,0.00,VWS V14.01,2013-08-06 16:44:00,
2013-08-06 12:49:00,90.0,84.5,29.99,East,90,0.0,0.0,84,0.00,,---,0.00,VWS V14.01,2013-08-06 16:49:00,
2013-08-06 12:54:00,90.0,85.9,29.99,SE,135,1.0,3.0,88,0.00,,---,0.00,VWS V14.01,2013-08-06 16:54:00,
2013-08-06 12:59:00,90.0,84.5,29.98,East,90,3.0,3.0,84,0.00,,---,0.00,VWS V14.01,2013-08-06 16:59:00,
2013-08-06 13:04:00,90.0,84.8,29.98,East,90,2.0,4.0,85,0.00,,---,0.00,VWS V14.01,2013-08-06 17:04:00,
2013-08-06 13:09:00,90.0,85.2,29.98,East,90,1.0,2.0,86,0.00,,---,0.00,VWS V14.01,2013-08-06 17:09:00,
2013-08-06 13:14:00,91.0,85.8,29.98,East,90,0.0,0.0,85,0.00,,---,0.00,VWS V14.01,2013-08-06 17:14:00,
2013-08-06 13:19:00,91.0,85.8,29.97,East,90,0.0,3.0,85,0.00,,---,0.00,VWS V14.01,2013-08-06 17:19:00,
2013-08-06 13:24:00,91.0,85.1,29.97,East,90,0.0,1.0,83,0.00,,---,0.00,VWS V14.01,2013-08-06 17:24:00,
2013-08-06 13:29:00,91.0,85.4,29.97,NE,45,1.0,6.0,84,0.00,,---,0.00,VWS V14.01,2013-08-06 17:29:00,
2013-08-06 13:33:00,91.0,85.4,29.97,East,90,0.0,1.0,84,0.00,,---,0.00,VWS V14.01,2013-08-06 17:33:00,
2013-08-06 13:38:00,91.0,85.1,29.97,East,90,1.0,7.0,83,0.00,,---,0.00,VWS V14.01,2013-08-06 17:38:00,
2013-08-06 13:43:00,90.0,85.6,29.97,East,90,0.0,4.0,87,0.00,,---,0.00,VWS V14.01,2013-08-06 17:43:00,
2013-08-06 13:48:00,90.0,86.3,29.97,East,90,1.0,1.0,89,0.00,,---,0.00,VWS V14.01,2013-08-06 17:48:00,
2013-08-06 13:53:00,90.0,85.2,29.97,East,90,7.0,7.0,86,0.00,,---,0.00,VWS V14.01,2013-08-06 17:53:00,
2013-08-06 13:58:00,89.0,85.3,29.97,East,90,0.0,4.0,89,0.00,,---,0.00,VWS V14.01,2013-08-06 17:58:00,
2013-08-06 14:03:00,89.0,85.7,29.97,East,90,0.0,1.0,90,0.00,,---,0.00,VWS V14.01,2013-08-06 18:03:00,
2013-08-06 14:08:00,89.0,86.7,29.97,East,90,0.0,2.0,93,0.00,,---,0.00,VWS V14.01,2013-08-06 18:08:00,
2013-08-06 14:13:00,89.0,85.3,29.97,East,90,1.0,6.0,89,0.00,,---,0.00,VWS V14.01,2013-08-06 18:13:00,
2013-08-06 14:18:00,89.0,84.9,29.97,East,90,1.0,1.0,88,0.00,,---,0.00,VWS V14.01,2013-08-06 18:18:00,
2013-08-06 14:23:00,89.0,84.6,29.97,East,90,3.0,6.0,87,0.00,,---,0.00,VWS V14.01,2013-08-06 18:23:00,
2013-08-06 14:28:00,89.0,83.5,29.97,East,90,3.0,3.0,84,0.00,,---,0.00,VWS V14.01,2013-08-06 18:28:00,
2013-08-06 14:33:00,89.0,84.9,29.97,East,90,2.0,2.0,88,0.00,,---,0.00,VWS V14.01,2013-08-06 18:33:00,
2013-08-06 14:38:00,89.0,83.5,29.97,East,90,5.0,6.0,84,0.00,,---,0.00,VWS V14.01,2013-08-06 18:38:00,
2013-08-06 14:43:00,89.0,84.9,29.97,ENE,67,0.0,1.0,88,0.00,,---,0.00,VWS V14.01,2013-08-06 18:43:00,
2013-08-06 14:48:00,90.0,86.3,29.96,East,90,0.0,1.0,89,0.00,,---,0.00,VWS V14.01,2013-08-06 18:48:00,
2013-08-06 14:54:00,90.0,85.9,29.96,East,90,3.0,4.0,88,0.00,,---,0.00,VWS V14.01,2013-08-06 18:54:00,
2013-08-06 14:59:00,90.0,85.2,29.96,East,90,3.0,7.0,86,0.00,,---,0.00,VWS V14.01,2013-08-06 18:59:00,
2013-08-06 15:04:00,90.0,85.2,29.96,North,360,0.0,3.0,86,0.00,,---,0.00,VWS V14.01,2013-08-06 19:04:00,
2013-08-06 15:09:00,90.0,84.5,29.95,East,90,6.0,8.0,84,0.00,,---,0.00,VWS V14.01,2013-08-06 19:09:00,
2013-08-06 15:14:00,89.0,84.2,29.95,East,90,0.0,2.0,86,0.00,,---,0.00,VWS V14.01,2013-08-06 19:14:00,
2013-08-06 15:20:00,90.0,85.9,29.95,East,90,0.0,4.0,88,0.00,,---,0.00,VWS V14.01,2013-08-06 19:20:00,
2013-08-06 15:25:00,90.0,85.9,29.95,East,90,2.0,4.0,88,0.00,,---,0.00,VWS V14.01,2013-08-06 19:25:00,
2013-08-06 15:30:00,90.0,85.2,29.95,East,90,5.0,6.0,86,0.00,,---,0.00,VWS V14.01,2013-08-06 19:30:00,
2013-08-06 15:35:00,90.0,85.9,29.95,East,90,1.0,4.0,88,0.00,,---,0.00,VWS V14.01,2013-08-06 19:35:00,
2013-08-06 15:40:00,90.0,84.5,29.95,East,90,1.0,1.0,84,0.00,,---,0.00,VWS V14.01,2013-08-06 19:40:00,
2013-08-06 15:45:00,91.0,86.6,29.94,East,90,1.0,3.0,87,0.00,,---,0.00,VWS V14.01,2013-08-06 19:45:00,
2013-08-06 15:50:00,90.0,85.2,29.94,East,90,2.0,3.0,86,0.00,,---,0.00,VWS V14.01,2013-08-06 19:50:00,
2013-08-06 15:55:00,90.0,84.8,29.95,East,90,2.0,6.0,85,0.00,,---,0.00,VWS V14.01,2013-08-06 19:55:00,
2013-08-06 16:00:00,90.0,85.9,29.95,NE,45,0.0,1.0,88,0.00,,---,0.00,VWS V14.01,2013-08-06 20:00:00,
2013-08-06 16:05:00,91.0,85.4,29.94,East,90,1.0,3.0,84,0.00,,---,0.00,VWS V14.01,2013-08-06 20:05:00,
2013-08-06 16:10:00,91.0,85.4,29.94,East,90,1.0,5.0,84,0.00,,---,0.00,VWS V14.01,2013-08-06 20:10:00,
2013-08-06 16:15:00,91.0,85.4,29.93,East,90,1.0,3.0,84,0.00,,---,0.00,VWS V14.01,2013-08-06 20:15:00,
2013-08-06 16:20:00,90.0,84.5,29.93,East,90,5.0,7.0,84,0.00,,---,0.00,VWS V14.01,2013-08-06 20:20:00,
2013-08-06 16:25:00,90.0,85.9,29.94,East,90,0.0,6.0,88,0.00,,---,0.00,VWS V14.01,2013-08-06 20:25:00,
2013-08-06 16:30:00,90.0,85.6,29.94,East,90,0.0,4.0,87,0.00,,---,0.00,VWS V14.01,2013-08-06 20:30:00,
2013-08-06 16:35:00,91.0,85.4,29.93,East,90,0.0,4.0,84,0.00,,---,0.00,VWS V14.01,2013-08-06 20:35:00,
2013-08-06 16:40:00,91.0,85.4,29.93,East,90,3.0,5.0,84,0.00,,---,0.00,VWS V14.01,2013-08-06 20:40:00,
2013-08-06 16:42:00,91.0,85.4,29.93,East,90,4.0,4.0,84,0.00,,---,0.00,VWS V14.01,2013-08-06 20:42:00,
2013-08-06 16:47:00,91.0,84.7,29.94,East,90,3.0,3.0,82,0.00,,---,0.00,VWS V14.01,2013-08-06 20:47:00,
2013-08-06 16:52:00,91.0,85.8,29.94,East,90,0.0,1.0,85,0.00,,---,0.00,VWS V14.01,2013-08-06 20:52:00,
2013-08-06 16:57:00,91.0,85.4,29.94,East,90,1.0,6.0,84,0.00,,---,0.00,VWS V14.01,2013-08-06 20:57:00,
2013-08-06 17:02:00,90.0,84.8,29.94,East,90,1.0,3.0,85,0.00,,---,0.00,VWS V14.01,2013-08-06 21:02:00,
2013-08-06 17:07:00,90.0,83.7,29.95,East,90,2.0,6.0,82,0.00,,---,0.00,VWS V14.01,2013-08-06 21:07:00,
2013-08-06 17:12:00,90.0,85.9,29.95,East,90,3.0,4.0,88,0.00,,---,0.00,VWS V14.01,2013-08-06 21:12:00,
2013-08-06 17:17:00,90.0,84.1,29.94,East,90,6.0,6.0,83,0.00,,---,0.00,VWS V14.01,2013-08-06 21:17:00,
2013-08-06 17:22:00,90.0,84.1,29.94,ESE,112,2.0,3.0,83,0.00,,---,0.00,VWS V14.01,2013-08-06 21:22:00,
2013-08-06 17:27:00,90.0,85.2,29.94,East,90,3.0,3.0,86,0.00,,---,0.00,VWS V14.01,2013-08-06 21:27:00,
2013-08-06 17:32:00,90.0,83.7,29.94,ESE,112,2.0,6.0,82,0.00,,---,0.00,VWS V14.01,2013-08-06 21:32:00,
2013-08-06 17:37:00,90.0,84.5,29.94,ESE,112,0.0,0.0,84,0.00,,---,0.00,VWS V14.01,2013-08-06 21:37:00,
2013-08-06 17:42:00,90.0,84.5,29.94,East,90,5.0,6.0,84,0.00,,---,0.00,VWS V14.01,2013-08-06 21:42:00,
2013-08-06 17:47:00,90.0,84.8,29.94,ESE,112,0.0,3.0,85,0.00,,---,0.00,VWS V14.01,2013-08-06 21:47:00,
2013-08-06 17:52:00,89.0,84.2,29.94,East,90,1.0,6.0,86,0.00,,---,0.00,VWS V14.01,2013-08-06 21:52:00,
2013-08-06 17:57:00,89.0,84.2,29.93,East,90,3.0,6.0,86,0.00,,---,0.00,VWS V14.01,2013-08-06 21:57:00,
2013-08-06 18:02:00,88.0,83.6,29.93,East,90,2.0,3.0,87,0.00,,---,0.00,VWS V14.01,2013-08-06 22:02:00,
2013-08-06 18:07:00,88.0,84.3,29.94,East,90,1.0,3.0,89,0.00,,---,0.00,VWS V14.01,2013-08-06 22:07:00,
2013-08-06 18:12:00,87.0,82.6,29.94,East,90,6.0,9.0,87,0.00,,---,0.00,VWS V14.01,2013-08-06 22:12:00,
2013-08-06 18:17:00,87.0,84.0,29.94,East,90,0.0,4.0,91,0.00,,---,0.00,VWS V14.01,2013-08-06 22:17:00,
2013-08-06 18:22:00,87.0,84.4,29.94,East,90,2.0,6.0,92,0.00,,---,0.00,VWS V14.01,2013-08-06 22:22:00,
2013-08-06 18:27:00,86.0,82.7,29.95,East,90,3.0,4.0,90,0.00,,---,0.00,VWS V14.01,2013-08-06 22:27:00,
2013-08-06 18:32:00,86.0,84.0,29.95,East,90,2.0,3.0,94,0.00,,---,0.00,VWS V14.01,2013-08-06 22:32:00,
2013-08-06 18:37:00,85.0,83.0,29.96,East,90,2.0,2.0,94,0.00,,---,0.00,VWS V14.01,2013-08-06 22:37:00,
2013-08-06 18:42:00,85.0,84.0,29.96,East,90,2.0,4.0,97,0.00,,---,0.00,VWS V14.01,2013-08-06 22:42:00,
2013-08-06 18:47:00,84.0,83.3,29.98,East,90,0.0,7.0,98,0.00,,---,0.00,VWS V14.01,2013-08-06 22:47:00,
2013-08-06 18:52:00,84.0,82.7,29.98,East,90,4.0,6.0,96,0.00,,---,0.00,VWS V14.01,2013-08-06 22:52:00,
2013-08-06 18:57:00,83.0,83.0,30.00,East,90,0.0,2.0,100,0.00,,---,0.00,VWS V14.01,2013-08-06 22:57:00,
2013-08-06 19:02:00,83.0,83.0,30.00,East,90,2.0,5.0,100,0.00,,---,0.00,VWS V14.01,2013-08-06 23:02:00,
2013-08-06 19:07:00,83.0,83.0,30.02,East,90,1.0,3.0,100,0.00,,---,0.00,VWS V14.01,2013-08-06 23:07:00,
2013-08-06 19:12:00,83.0,83.0,30.02,East,90,4.0,4.0,100,0.00,,---,0.00,VWS V14.01,2013-08-06 23:12:00,
2013-08-06 19:17:00,83.0,83.0,30.03,East,90,1.0,4.0,100,0.00,,---,0.00,VWS V14.01,2013-08-06 23:17:00,
2013-08-06 19:22:00,82.0,82.0,30.03,East,90,0.0,0.0,100,0.00,,---,0.00,VWS V14.01,2013-08-06 23:22:00,
2013-08-06 19:27:00,82.0,82.0,30.05,East,90,1.0,1.0,100,0.00,,---,0.00,VWS V14.01,2013-08-06 23:27:00,
2013-08-06 19:32:00,82.0,82.0,30.05,East,90,2.0,4.0,100,0.00,,---,0.00,VWS V14.01,2013-08-06 23:32:00,
2013-08-06 19:37:00,82.0,82.0,30.07,East,90,0.0,0.0,100,0.00,,---,0.00,VWS V14.01,2013-08-06 23:37:00,
2013-08-06 19:42:00,82.0,82.0,30.07,East,90,0.0,3.0,100,0.00,,---,0.00,VWS V14.01,2013-08-06 23:42:00,
2013-08-06 19:47:00,82.0,82.0,30.09,East,90,0.0,0.0,100,0.00,,---,0.00,VWS V14.01,2013-08-06 23:47:00,
2013-08-06 19:52:00,81.0,81.0,30.09,East,90,0.0,2.0,100,0.00,,---,0.00,VWS V14.01,2013-08-06 23:52:00,
2013-08-06 19:57:00,81.0,81.0,30.10,East,90,0.0,0.0,100,0.00,,---,0.00,VWS V14.01,2013-08-06 23:57:00,
2013-08-06 20:02:00,81.0,81.0,30.10,East,90,0.0,0.0,100,0.00,,---,0.00,VWS V14.01,2013-08-07 00:02:00,
2013-08-06 20:07:00,81.0,81.0,30.11,East,90,0.0,1.0,100,0.00,,---,0.00,VWS V14.01,2013-08-07 00:07:00,
2013-08-06 20:12:00,80.0,80.0,30.11,East,90,0.0,0.0,100,0.00,,---,0.00,VWS V14.01,2013-08-07 00:12:00,
2013-08-06 20:17:00,80.0,80.0,30.13,East,90,0.0,0.0,100,0.00,,---,0.00,VWS V14.01,2013-08-07 00:17:00,
2013-08-06 20:22:00,80.0,80.0,30.13,East,90,0.0,0.0,100,0.00,,---,0.00,VWS V14.01,2013-08-07 00:22:00,
2013-08-06 20:27:00,80.0,80.0,30.15,East,90,0.0,0.0,100,0.00,,---,0.00,VWS V14.01,2013-08-07 00:27:00,
2013-08-06 20:32:00,79.0,79.0,30.15,East,90,0.0,0.0,100,0.00,,---,0.00,VWS V14.01,2013-08-07 00:32:00,
2013-08-06 20:37:00,79.0,79.0,30.16,East,90,0.0,0.0,100,0.00,,---,0.00,VWS V14.01,2013-08-07 00:37:00,
2013-08-06 20:42:00,79.0,79.0,30.16,East,90,0.0,0.0,100,0.00,,---,0.00,VWS V14.01,2013-08-07 00:42:00,
2013-08-06 20:47:00,79.0,79.0,30.17,East,90,0.0,1.0,100,0.00,,---,0.00,VWS V14.01,2013-08-07 00:47:00,
2013-08-06 20:52:00,79.0,79.0,30.17,East,90,0.0,0.0,100,0.00,,---,0.00,VWS V14.01,2013-08-07 00:52:00,
2013-08-06 20:57:00,79.0,79.0,30.18,East,90,0.0,0.0,100,0.00,,---,0.00,VWS V14.01,2013-08-07 00:57:00,
2013-08-06 21:02:00,79.0,79.0,30.18,East,90,0.0,0.0,100,0.00,,---,0.00,VWS V14.01,2013-08-07 01:02:00,
2013-08-06 21:07:00,79.0,79.0,30.19,East,90,0.0,0.0,100,0.00,,---,0.00,VWS V14.01,2013-08-07 01:07:00,
2013-08-06 21:12:00,79.0,79.0,30.19,East,90,1.0,2.0,100,0.00,,---,0.00,VWS V14.01,2013-08-07 01:12:00,
2013-08-06 21:13:00,79.0,79.0,30.19,East,90,0.0,4.0,100,0.00,,---,0.00,VWS V14.01,2013-08-07 01:13:00,
2013-08-06 21:18:00,79.0,79.0,30.20,East,90,0.0,0.0,100,0.00,,---,0.00,VWS V14.01,2013-08-07 01:18:00,
2013-08-06 21:23:00,79.0,79.0,30.20,East,90,0.0,1.0,100,0.00,,---,0.00,VWS V14.01,2013-08-07 01:23:00,
2013-08-06 21:28:00,79.0,79.0,30.20,East,90,0.0,0.0,100,0.00,,---,0.00,VWS V14.01,2013-08-07 01:28:00,
2013-08-06 21:33:00,79.0,79.0,30.20,East,90,0.0,0.0,100,0.00,,---,0.00,VWS V14.01,2013-08-07 01:33:00,
2013-08-06 21:38:00,79.0,79.0,30.20,East,90,0.0,0.0,100,0.00,,---,0.00,VWS V14.01,2013-08-07 01:38:00,
2013-08-06 21:43:00,78.0,78.0,30.20,East,90,0.0,0.0,100,0.00,,---,0.00,VWS V14.01,2013-08-07 01:43:00,
2013-08-06 21:48:00,78.0,78.0,30.21,East,90,0.0,0.0,100,0.00,,---,0.00,VWS V14.01,2013-08-07 01:48:00,
2013-08-06 21:53:00,78.0,78.0,30.21,East,90,0.0,0.0,100,0.00,,---,0.00,VWS V14.01,2013-08-07 01:53:00,
2013-08-06 21:58:00,78.0,78.0,30.22,East,90,0.0,3.0,100,0.00,,---,0.00,VWS V14.01,2013-08-07 01:58:00,
2013-08-06 22:03:00,78.0,78.0,30.22,East,90,0.0,0.0,100,0.00,,---,0.00,VWS V14.01,2013-08-07 02:03:00,
2013-08-06 22:08:00,78.0,78.0,30.22,East,90,0.0,0.0,100,0.00,,---,0.00,VWS V14.01,2013-08-07 02:08:00,
2013-08-06 22:13:00,78.0,78.0,30.22,East,90,0.0,0.0,100,0.00,,---,0.00,VWS V14.01,2013-08-07 02:13:00,
2013-08-06 22:18:00,78.0,78.0,30.22,East,90,0.0,0.0,100,0.00,,---,0.00,VWS V14.01,2013-08-07 02:18:00,
2013-08-06 22:23:00,78.0,78.0,30.22,East,90,0.0,0.0,100,0.00,,---,0.00,VWS V14.01,2013-08-07 02:23:00,
2013-08-06 22:28:00,78.0,78.0,30.23,East,90,0.0,1.0,100,0.00,,---,0.00,VWS V14.01,2013-08-07 02:28:00,
2013-08-06 22:33:00,78.0,78.0,30.23,East,90,0.0,0.0,100,0.00,,---,0.00,VWS V14.01,2013-08-07 02:33:00,
2013-08-06 22:38:00,78.0,78.0,30.23,East,90,0.0,0.0,100,0.00,,---,0.00,VWS V14.01,2013-08-07 02:38:00,
2013-08-06 22:43:00,78.0,78.0,30.23,East,90,0.0,0.0,100,0.00,,---,0.00,VWS V14.01,2013-08-07 02:43:00,
2013-08-06 22:48:00,78.0,78.0,30.23,East,90,0.0,0.0,100,0.00,,---,0.00,VWS V14.01,2013-08-07 02:48:00,
2013-08-06 22:53:00,78.0,78.0,30.23,East,90,0.0,0.0,100,0.00,,---,0.00,VWS V14.01,2013-08-07 02:53:00,
2013-08-06 22:58:00,78.0,78.0,30.24,East,90,0.0,0.0,100,0.00,,---,0.00,VWS V14.01,2013-08-07 02:58:00,
2013-08-06 23:03:00,78.0,78.0,30.24,East,90,0.0,0.0,100,0.00,,---,0.00,VWS V14.01,2013-08-07 03:03:00,
2013-08-06 23:08:00,78.0,78.0,30.24,East,90,1.0,1.0,100,0.00,,---,0.00,VWS V14.01,2013-08-07 03:08:00,
2013-08-06 23:13:00,78.0,78.0,30.24,East,90,1.0,2.0,100,0.00,,---,0.00,VWS V14.01,2013-08-07 03:13:00,
2013-08-06 23:18:00,78.0,78.0,30.24,East,90,0.0,0.0,100,0.00,,---,0.00,VWS V14.01,2013-08-07 03:18:00,
2013-08-06 23:23:00,78.0,78.0,30.24,East,90,0.0,0.0,100,0.00,,---,0.00,VWS V14.01,2013-08-07 03:23:00,
2013-08-06 23:28:00,78.0,78.0,30.24,East,90,2.0,4.0,100,0.00,,---,0.00,VWS V14.01,2013-08-07 03:28:00,
2013-08-06 23:33:00,78.0,78.0,30.24,East,90,0.0,0.0,100,0.00,,---,0.00,VWS V14.01,2013-08-07 03:33:00,
2013-08-06 23:38:00,79.0,79.0,30.24,East,90,0.0,1.0,100,0.00,,---,0.00,VWS V14.01,2013-08-07 03:38:00,
2013-08-06 23:43:00,79.0,79.0,30.24,East,90,0.0,1.0,100,0.00,,---,0.00,VWS V14.01,2013-08-07 03:43:00,
2013-08-06 23:48:00,79.0,79.0,30.24,East,90,0.0,0.0,100,0.00,,---,0.00,VWS V14.01,2013-08-07 03:48:00,
2013-08-06 23:53:00,78.0,78.0,30.24,East,90,0.0,0.0,100,0.00,,---,0.00,VWS V14.01,2013-08-07 03:53:00,
2013-08-06 23:58:00,79.0,79.0,30.24,East,90,0.0,0.0,100,0.00,,---,0.00,VWS V14.01,2013-08-07 03:58:00,